Terminal Aerodrome Forecast
Issued by NWS

Home | Current Version | Previous Version | Text Only | Print | Product List | Glossary On
Versions: 1 2 3 4 5 6 7 8 9 10 11 12 13 14 15 16 17 18 19 20
000
FTUS46 KSEW 290105 AAA
TAFHQM
TAF AMD
KHQM 290105Z 2901/2924 18015KT 3SM BR SCT010 BKN014 OVC035
      TEMPO 2901/2905 -RA BR BKN007 OVC014
     FM290500 24012KT 5SM BR VCSH BKN035 BKN050
     FM290700 26007KT 6SM BR BKN020 BKN035
     FM291900 24012KT P6SM BKN035 BKN050=

USA.gov is the U.S. government's official web portal to all federal, state and local government web resources and services.